sensor_id;sensor_type;location;lat;lon;timestamp;P1;durP1;ratioP1;P2;durP2;ratioP2
12308;SDS011;6217;48.150;17.142;2023-02-16T00:01:49;74.10;;;34.58;;
12308;SDS011;6217;48.150;17.142;2023-02-16T00:05:59;77.95;;;38.28;;
12308;SDS011;6217;48.150;17.142;2023-02-16T00:10:05;82.22;;;41.05;;
12308;SDS011;6217;48.150;17.142;2023-02-16T00:14:11;80.13;;;38.75;;
12308;SDS011;6217;48.150;17.142;2023-02-16T00:18:19;79.50;;;36.30;;
12308;SDS011;6217;48.150;17.142;2023-02-16T00:22:26;77.82;;;37.15;;
12308;SDS011;6217;48.150;17.142;2023-02-16T00:26:31;74.72;;;38.88;;
12308;SDS011;6217;48.150;17.142;2023-02-16T00:30:39;85.68;;;41.22;;
12308;SDS011;6217;48.150;17.142;2023-02-16T00:34:45;76.10;;;38.85;;
12308;SDS011;6217;48.150;17.142;2023-02-16T00:38:51;88.95;;;38.53;;
12308;SDS011;6217;48.150;17.142;2023-02-16T00:42:57;73.30;;;37.28;;
12308;SDS011;6217;48.150;17.142;2023-02-16T00:47:17;68.80;;;36.20;;
12308;SDS011;6217;48.150;17.142;2023-02-16T00:51:27;69.07;;;37.25;;
12308;SDS011;6217;48.150;17.142;2023-02-16T00:55:33;78.28;;;35.17;;
12308;SDS011;6217;48.150;17.142;2023-02-16T00:59:40;68.10;;;36.50;;
12308;SDS011;6217;48.150;17.142;2023-02-16T01:03:46;72.03;;;35.38;;
12308;SDS011;6217;48.150;17.142;2023-02-16T01:07:52;69.03;;;34.88;;
12308;SDS011;6217;48.150;17.142;2023-02-16T01:12:17;71.85;;;35.45;;
12308;SDS011;6217;48.150;17.142;2023-02-16T01:16:26;67.03;;;33.20;;
12308;SDS011;6217;48.150;17.142;2023-02-16T01:20:43;68.90;;;34.15;;
12308;SDS011;6217;48.150;17.142;2023-02-16T01:24:50;78.20;;;38.15;;
12308;SDS011;6217;48.150;17.142;2023-02-16T01:28:56;72.53;;;37.08;;
12308;SDS011;6217;48.150;17.142;2023-02-16T01:33:02;80.20;;;39.80;;
12308;SDS011;6217;48.150;17.142;2023-02-16T01:37:14;84.20;;;40.90;;
12308;SDS011;6217;48.150;17.142;2023-02-16T01:45:50;81.32;;;40.88;;
12308;SDS011;6217;48.150;17.142;2023-02-16T01:50:11;81.68;;;41.58;;
12308;SDS011;6217;48.150;17.142;2023-02-16T01:54:31;82.93;;;39.50;;
12308;SDS011;6217;48.150;17.142;2023-02-16T01:59:26;81.85;;;41.22;;
12308;SDS011;6217;48.150;17.142;2023-02-16T02:03:42;100.45;;;45.75;;
12308;SDS011;6217;48.150;17.142;2023-02-16T02:08:11;95.35;;;42.72;;
12308;SDS011;6217;48.150;17.142;2023-02-16T02:16:59;83.05;;;42.72;;
12308;SDS011;6217;48.150;17.142;2023-02-16T02:31:06;76.30;;;36.58;;
12308;SDS011;6217;48.150;17.142;2023-02-16T02:35:57;81.28;;;41.83;;
12308;SDS011;6217;48.150;17.142;2023-02-16T02:45:24;69.80;;;33.45;;
12308;SDS011;6217;48.150;17.142;2023-02-16T02:49:36;69.63;;;35.03;;
12308;SDS011;6217;48.150;17.142;2023-02-16T02:53:47;69.78;;;32.42;;
12308;SDS011;6217;48.150;17.142;2023-02-16T02:58:19;67.85;;;35.75;;
12308;SDS011;6217;48.150;17.142;2023-02-16T03:02:47;64.00;;;33.72;;
12308;SDS011;6217;48.150;17.142;2023-02-16T03:06:57;70.85;;;36.55;;
12308;SDS011;6217;48.150;17.142;2023-02-16T03:11:07;67.78;;;35.55;;
12308;SDS011;6217;48.150;17.142;2023-02-16T03:15:38;70.93;;;34.92;;
12308;SDS011;6217;48.150;17.142;2023-02-16T03:19:45;71.82;;;34.95;;
12308;SDS011;6217;48.150;17.142;2023-02-16T03:24:14;72.75;;;34.35;;
12308;SDS011;6217;48.150;17.142;2023-02-16T03:28:45;70.63;;;31.63;;
12308;SDS011;6217;48.150;17.142;2023-02-16T03:33:10;64.50;;;31.20;;
12308;SDS011;6217;48.150;17.142;2023-02-16T03:37:16;63.38;;;33.45;;
12308;SDS011;6217;48.150;17.142;2023-02-16T03:41:23;66.90;;;35.13;;
12308;SDS011;6217;48.150;17.142;2023-02-16T03:45:31;67.25;;;31.30;;
12308;SDS011;6217;48.150;17.142;2023-02-16T03:49:39;68.95;;;35.28;;
12308;SDS011;6217;48.150;17.142;2023-02-16T03:53:45;65.95;;;32.00;;
12308;SDS011;6217;48.150;17.142;2023-02-16T03:57:51;69.00;;;32.90;;
12308;SDS011;6217;48.150;17.142;2023-02-16T04:01:57;57.50;;;30.27;;
12308;SDS011;6217;48.150;17.142;2023-02-16T04:06:03;67.38;;;31.67;;
12308;SDS011;6217;48.150;17.142;2023-02-16T04:10:09;61.97;;;28.92;;
12308;SDS011;6217;48.150;17.142;2023-02-16T04:14:15;62.58;;;30.85;;
12308;SDS011;6217;48.150;17.142;2023-02-16T04:18:21;60.70;;;30.92;;
12308;SDS011;6217;48.150;17.142;2023-02-16T04:22:27;61.13;;;30.70;;
12308;SDS011;6217;48.150;17.142;2023-02-16T04:26:33;68.05;;;30.50;;
12308;SDS011;6217;48.150;17.142;2023-02-16T04:30:39;62.55;;;30.80;;
12308;SDS011;6217;48.150;17.142;2023-02-16T04:34:45;62.92;;;31.73;;
12308;SDS011;6217;48.150;17.142;2023-02-16T04:38:51;61.10;;;32.13;;
12308;SDS011;6217;48.150;17.142;2023-02-16T04:42:57;61.47;;;30.33;;
12308;SDS011;6217;48.150;17.142;2023-02-16T04:47:03;63.60;;;31.83;;
12308;SDS011;6217;48.150;17.142;2023-02-16T04:51:09;66.95;;;32.10;;
12308;SDS011;6217;48.150;17.142;2023-02-16T04:55:15;67.80;;;31.98;;
12308;SDS011;6217;48.150;17.142;2023-02-16T04:59:21;57.50;;;31.90;;
12308;SDS011;6217;48.150;17.142;2023-02-16T05:03:27;66.65;;;32.50;;
12308;SDS011;6217;48.150;17.142;2023-02-16T05:07:33;60.92;;;31.92;;
12308;SDS011;6217;48.150;17.142;2023-02-16T05:11:40;62.58;;;34.15;;
12308;SDS011;6217;48.150;17.142;2023-02-16T05:16:05;65.82;;;30.98;;
12308;SDS011;6217;48.150;17.142;2023-02-16T05:20:11;61.33;;;30.65;;
12308;SDS011;6217;48.150;17.142;2023-02-16T05:24:17;72.28;;;35.80;;
12308;SDS011;6217;48.150;17.142;2023-02-16T05:28:23;73.28;;;33.53;;
12308;SDS011;6217;48.150;17.142;2023-02-16T05:32:29;71.05;;;33.15;;
12308;SDS011;6217;48.150;17.142;2023-02-16T05:36:35;70.43;;;33.78;;
12308;SDS011;6217;48.150;17.142;2023-02-16T05:40:41;73.90;;;32.63;;
12308;SDS011;6217;48.150;17.142;2023-02-16T05:44:47;71.57;;;34.45;;
12308;SDS011;6217;48.150;17.142;2023-02-16T05:48:53;71.18;;;37.40;;
12308;SDS011;6217;48.150;17.142;2023-02-16T05:52:59;71.25;;;32.50;;
12308;SDS011;6217;48.150;17.142;2023-02-16T05:57:05;67.78;;;35.67;;
12308;SDS011;6217;48.150;17.142;2023-02-16T06:01:11;62.88;;;30.38;;
12308;SDS011;6217;48.150;17.142;2023-02-16T06:05:18;70.40;;;31.60;;
12308;SDS011;6217;48.150;17.142;2023-02-16T06:09:24;70.45;;;32.28;;
12308;SDS011;6217;48.150;17.142;2023-02-16T06:13:29;73.45;;;36.17;;
12308;SDS011;6217;48.150;17.142;2023-02-16T06:17:35;64.22;;;32.70;;
12308;SDS011;6217;48.150;17.142;2023-02-16T06:21:41;69.97;;;34.80;;
12308;SDS011;6217;48.150;17.142;2023-02-16T06:25:48;76.03;;;34.72;;
12308;SDS011;6217;48.150;17.142;2023-02-16T06:29:56;63.97;;;33.42;;
12308;SDS011;6217;48.150;17.142;2023-02-16T06:34:01;69.78;;;36.53;;
12308;SDS011;6217;48.150;17.142;2023-02-16T06:38:08;72.47;;;35.67;;
12308;SDS011;6217;48.150;17.142;2023-02-16T06:42:14;66.15;;;34.55;;
12308;SDS011;6217;48.150;17.142;2023-02-16T06:46:20;69.32;;;35.45;;
12308;SDS011;6217;48.150;17.142;2023-02-16T06:50:26;69.97;;;37.95;;
12308;SDS011;6217;48.150;17.142;2023-02-16T06:54:32;69.28;;;35.15;;
12308;SDS011;6217;48.150;17.142;2023-02-16T06:58:38;72.28;;;35.97;;
12308;SDS011;6217;48.150;17.142;2023-02-16T07:02:43;69.47;;;35.50;;
12308;SDS011;6217;48.150;17.142;2023-02-16T07:06:50;72.30;;;36.05;;
12308;SDS011;6217;48.150;17.142;2023-02-16T07:10:57;71.88;;;36.80;;
12308;SDS011;6217;48.150;17.142;2023-02-16T07:15:03;71.13;;;34.60;;
12308;SDS011;6217;48.150;17.142;2023-02-16T07:19:09;65.10;;;33.20;;
12308;SDS011;6217;48.150;17.142;2023-02-16T07:23:15;73.53;;;35.08;;
12308;SDS011;6217;48.150;17.142;2023-02-16T07:27:21;64.82;;;31.42;;
12308;SDS011;6217;48.150;17.142;2023-02-16T07:31:28;67.07;;;34.50;;
12308;SDS011;6217;48.150;17.142;2023-02-16T07:35:34;66.32;;;36.88;;
12308;SDS011;6217;48.150;17.142;2023-02-16T07:39:41;66.07;;;33.17;;
12308;SDS011;6217;48.150;17.142;2023-02-16T07:43:47;67.22;;;34.17;;
12308;SDS011;6217;48.150;17.142;2023-02-16T07:47:53;65.90;;;35.95;;
12308;SDS011;6217;48.150;17.142;2023-02-16T07:51:59;65.07;;;34.65;;
12308;SDS011;6217;48.150;17.142;2023-02-16T07:56:05;70.97;;;38.75;;
12308;SDS011;6217;48.150;17.142;2023-02-16T08:00:11;70.25;;;35.00;;
12308;SDS011;6217;48.150;17.142;2023-02-16T08:04:17;69.68;;;33.95;;
12308;SDS011;6217;48.150;17.142;2023-02-16T08:08:23;66.28;;;33.60;;
12308;SDS011;6217;48.150;17.142;2023-02-16T08:12:29;69.32;;;33.50;;
12308;SDS011;6217;48.150;17.142;2023-02-16T08:16:35;61.35;;;31.33;;
12308;SDS011;6217;48.150;17.142;2023-02-16T08:20:41;55.78;;;29.58;;
12308;SDS011;6217;48.150;17.142;2023-02-16T08:24:47;60.47;;;31.10;;
12308;SDS011;6217;48.150;17.142;2023-02-16T08:28:55;57.97;;;30.15;;
12308;SDS011;6217;48.150;17.142;2023-02-16T08:33:02;59.45;;;29.77;;
12308;SDS011;6217;48.150;17.142;2023-02-16T08:37:09;62.38;;;29.05;;
12308;SDS011;6217;48.150;17.142;2023-02-16T08:41:18;57.97;;;29.40;;
12308;SDS011;6217;48.150;17.142;2023-02-16T08:45:26;65.78;;;31.95;;
12308;SDS011;6217;48.150;17.142;2023-02-16T08:49:33;64.72;;;30.10;;
12308;SDS011;6217;48.150;17.142;2023-02-16T08:53:39;62.20;;;29.98;;
12308;SDS011;6217;48.150;17.142;2023-02-16T08:57:45;58.88;;;28.80;;
12308;SDS011;6217;48.150;17.142;2023-02-16T09:01:51;65.95;;;32.30;;
12308;SDS011;6217;48.150;17.142;2023-02-16T09:05:59;58.70;;;28.48;;
12308;SDS011;6217;48.150;17.142;2023-02-16T09:10:08;60.90;;;28.00;;
12308;SDS011;6217;48.150;17.142;2023-02-16T09:14:14;53.38;;;28.17;;
12308;SDS011;6217;48.150;17.142;2023-02-16T09:18:22;64.25;;;29.52;;
12308;SDS011;6217;48.150;17.142;2023-02-16T09:22:28;58.45;;;29.15;;
12308;SDS011;6217;48.150;17.142;2023-02-16T09:26:35;58.50;;;27.83;;
12308;SDS011;6217;48.150;17.142;2023-02-16T09:30:43;61.80;;;27.50;;
12308;SDS011;6217;48.150;17.142;2023-02-16T09:34:49;54.70;;;27.33;;
12308;SDS011;6217;48.150;17.142;2023-02-16T09:38:55;60.80;;;28.65;;
12308;SDS011;6217;48.150;17.142;2023-02-16T09:47:29;59.70;;;29.70;;
12308;SDS011;6217;48.150;17.142;2023-02-16T09:51:39;61.88;;;27.75;;
12308;SDS011;6217;48.150;17.142;2023-02-16T09:56:35;55.38;;;26.33;;
12308;SDS011;6217;48.150;17.142;2023-02-16T10:00:47;54.90;;;29.40;;
12308;SDS011;6217;48.150;17.142;2023-02-16T10:05:19;54.75;;;27.65;;
12308;SDS011;6217;48.150;17.142;2023-02-16T10:09:49;64.73;;;29.83;;
12308;SDS011;6217;48.150;17.142;2023-02-16T10:14:03;49.92;;;25.95;;
12308;SDS011;6217;48.150;17.142;2023-02-16T10:18:21;47.15;;;24.95;;
12308;SDS011;6217;48.150;17.142;2023-02-16T10:27:09;43.35;;;22.85;;
12308;SDS011;6217;48.150;17.142;2023-02-16T10:35:48;46.30;;;23.95;;
12308;SDS011;6217;48.150;17.142;2023-02-16T10:44:23;43.05;;;23.92;;
12308;SDS011;6217;48.150;17.142;2023-02-16T10:48:36;43.97;;;23.83;;
12308;SDS011;6217;48.150;17.142;2023-02-16T10:52:42;40.03;;;22.92;;
12308;SDS011;6217;48.150;17.142;2023-02-16T10:56:52;50.30;;;25.00;;
12308;SDS011;6217;48.150;17.142;2023-02-16T11:01:09;47.47;;;24.33;;
12308;SDS011;6217;48.150;17.142;2023-02-16T11:05:28;47.03;;;22.33;;
12308;SDS011;6217;48.150;17.142;2023-02-16T11:09:39;40.53;;;21.75;;
12308;SDS011;6217;48.150;17.142;2023-02-16T11:13:48;44.53;;;22.20;;
12308;SDS011;6217;48.150;17.142;2023-02-16T11:18:07;41.10;;;21.45;;
12308;SDS011;6217;48.150;17.142;2023-02-16T11:22:35;35.83;;;21.17;;
12308;SDS011;6217;48.150;17.142;2023-02-16T11:26:43;40.08;;;22.15;;
12308;SDS011;6217;48.150;17.142;2023-02-16T11:35:29;45.35;;;21.77;;
12308;SDS011;6217;48.150;17.142;2023-02-16T11:39:38;41.67;;;22.58;;
12308;SDS011;6217;48.150;17.142;2023-02-16T11:43:45;42.35;;;21.05;;
12308;SDS011;6217;48.150;17.142;2023-02-16T11:48:01;44.17;;;22.52;;
12308;SDS011;6217;48.150;17.142;2023-02-16T11:52:19;45.72;;;23.52;;
12308;SDS011;6217;48.150;17.142;2023-02-16T11:56:33;37.63;;;20.85;;
12308;SDS011;6217;48.150;17.142;2023-02-16T12:00:40;57.45;;;28.98;;
12308;SDS011;6217;48.150;17.142;2023-02-16T12:09:36;46.90;;;21.83;;
12308;SDS011;6217;48.150;17.142;2023-02-16T12:13:58;39.38;;;21.48;;
12308;SDS011;6217;48.150;17.142;2023-02-16T12:46:25;38.20;;;20.75;;
12308;SDS011;6217;48.150;17.142;2023-02-16T12:50:38;39.22;;;19.95;;
12308;SDS011;6217;48.150;17.142;2023-02-16T12:54:50;35.53;;;20.08;;
12308;SDS011;6217;48.150;17.142;2023-02-16T12:59:06;35.08;;;19.92;;
12308;SDS011;6217;48.150;17.142;2023-02-16T13:03:38;40.63;;;22.10;;
12308;SDS011;6217;48.150;17.142;2023-02-16T13:07:49;37.88;;;19.42;;
12308;SDS011;6217;48.150;17.142;2023-02-16T13:16:27;40.08;;;19.98;;
12308;SDS011;6217;48.150;17.142;2023-02-16T13:20:52;41.50;;;23.52;;
12308;SDS011;6217;48.150;17.142;2023-02-16T13:30:14;42.95;;;22.02;;
12308;SDS011;6217;48.150;17.142;2023-02-16T13:34:58;43.55;;;22.38;;
12308;SDS011;6217;48.150;17.142;2023-02-16T13:48:27;38.75;;;21.33;;
12308;SDS011;6217;48.150;17.142;2023-02-16T13:52:42;43.42;;;23.13;;
12308;SDS011;6217;48.150;17.142;2023-02-16T13:56:48;48.47;;;23.08;;
12308;SDS011;6217;48.150;17.142;2023-02-16T14:00:54;44.08;;;24.42;;
12308;SDS011;6217;48.150;17.142;2023-02-16T14:05:00;46.08;;;23.13;;
12308;SDS011;6217;48.150;17.142;2023-02-16T14:17:47;46.40;;;22.75;;
12308;SDS011;6217;48.150;17.142;2023-02-16T14:21:53;41.70;;;20.45;;
12308;SDS011;6217;48.150;17.142;2023-02-16T14:26:00;48.28;;;24.10;;
12308;SDS011;6217;48.150;17.142;2023-02-16T14:30:21;35.83;;;20.85;;
12308;SDS011;6217;48.150;17.142;2023-02-16T14:34:39;34.17;;;19.92;;
12308;SDS011;6217;48.150;17.142;2023-02-16T14:38:54;34.75;;;21.35;;
12308;SDS011;6217;48.150;17.142;2023-02-16T14:43:16;43.60;;;23.38;;
12308;SDS011;6217;48.150;17.142;2023-02-16T14:47:53;37.53;;;21.45;;
12308;SDS011;6217;48.150;17.142;2023-02-16T14:56:51;40.40;;;22.80;;
12308;SDS011;6217;48.150;17.142;2023-02-16T15:05:18;63.42;;;36.03;;
12308;SDS011;6217;48.150;17.142;2023-02-16T15:09:28;66.83;;;38.90;;
12308;SDS011;6217;48.150;17.142;2023-02-16T15:13:37;49.08;;;26.83;;
12308;SDS011;6217;48.150;17.142;2023-02-16T15:17:44;49.20;;;25.50;;
12308;SDS011;6217;48.150;17.142;2023-02-16T15:26:22;38.85;;;22.00;;
12308;SDS011;6217;48.150;17.142;2023-02-16T15:30:33;40.58;;;22.55;;
12308;SDS011;6217;48.150;17.142;2023-02-16T15:34:45;48.88;;;24.67;;
12308;SDS011;6217;48.150;17.142;2023-02-16T15:43:42;46.22;;;24.40;;
12308;SDS011;6217;48.150;17.142;2023-02-16T15:52:40;40.78;;;22.65;;
12308;SDS011;6217;48.150;17.142;2023-02-16T15:56:49;45.63;;;25.77;;
12308;SDS011;6217;48.150;17.142;2023-02-16T16:00:58;44.65;;;25.48;;
12308;SDS011;6217;48.150;17.142;2023-02-16T16:05:08;44.03;;;23.90;;
12308;SDS011;6217;48.150;17.142;2023-02-16T16:09:27;49.92;;;26.38;;
12308;SDS011;6217;48.150;17.142;2023-02-16T16:13:37;46.65;;;24.50;;
12308;SDS011;6217;48.150;17.142;2023-02-16T16:17:43;49.20;;;27.50;;
12308;SDS011;6217;48.150;17.142;2023-02-16T16:21:53;55.60;;;27.98;;
12308;SDS011;6217;48.150;17.142;2023-02-16T16:25:59;59.92;;;30.52;;
12308;SDS011;6217;48.150;17.142;2023-02-16T16:39:07;59.65;;;29.42;;
12308;SDS011;6217;48.150;17.142;2023-02-16T16:47:36;59.83;;;29.58;;
12308;SDS011;6217;48.150;17.142;2023-02-16T16:51:44;67.18;;;31.63;;
12308;SDS011;6217;48.150;17.142;2023-02-16T16:55:57;69.97;;;32.53;;
12308;SDS011;6217;48.150;17.142;2023-02-16T17:00:03;65.03;;;28.55;;
12308;SDS011;6217;48.150;17.142;2023-02-16T17:04:10;63.50;;;30.20;;
12308;SDS011;6217;48.150;17.142;2023-02-16T17:08:16;68.40;;;32.22;;
12308;SDS011;6217;48.150;17.142;2023-02-16T17:12:22;66.53;;;31.15;;
12308;SDS011;6217;48.150;17.142;2023-02-16T17:16:30;63.03;;;31.02;;
12308;SDS011;6217;48.150;17.142;2023-02-16T17:20:44;62.97;;;29.35;;
12308;SDS011;6217;48.150;17.142;2023-02-16T17:24:51;67.47;;;30.60;;
12308;SDS011;6217;48.150;17.142;2023-02-16T17:28:57;75.70;;;31.48;;
12308;SDS011;6217;48.150;17.142;2023-02-16T17:33:03;63.58;;;30.27;;
12308;SDS011;6217;48.150;17.142;2023-02-16T17:37:11;81.43;;;34.97;;
12308;SDS011;6217;48.150;17.142;2023-02-16T17:41:19;78.82;;;34.35;;
12308;SDS011;6217;48.150;17.142;2023-02-16T17:45:30;74.00;;;33.92;;
12308;SDS011;6217;48.150;17.142;2023-02-16T17:49:36;73.78;;;32.05;;
12308;SDS011;6217;48.150;17.142;2023-02-16T17:53:42;77.32;;;34.88;;
12308;SDS011;6217;48.150;17.142;2023-02-16T17:57:49;80.55;;;33.35;;
12308;SDS011;6217;48.150;17.142;2023-02-16T18:01:55;91.57;;;36.47;;
12308;SDS011;6217;48.150;17.142;2023-02-16T18:12:26;80.68;;;32.65;;
12308;SDS011;6217;48.150;17.142;2023-02-16T18:16:32;84.65;;;32.80;;
12308;SDS011;6217;48.150;17.142;2023-02-16T18:20:38;85.40;;;36.60;;
12308;SDS011;6217;48.150;17.142;2023-02-16T18:24:48;82.28;;;32.88;;
12308;SDS011;6217;48.150;17.142;2023-02-16T18:28:55;139.90;;;37.25;;
12308;SDS011;6217;48.150;17.142;2023-02-16T18:33:02;79.75;;;32.00;;
12308;SDS011;6217;48.150;17.142;2023-02-16T18:37:08;72.68;;;31.42;;
12308;SDS011;6217;48.150;17.142;2023-02-16T18:41:14;100.00;;;31.83;;
12308;SDS011;6217;48.150;17.142;2023-02-16T18:45:20;80.50;;;30.88;;
12308;SDS011;6217;48.150;17.142;2023-02-16T18:49:27;78.00;;;30.40;;
12308;SDS011;6217;48.150;17.142;2023-02-16T18:53:33;86.47;;;33.63;;
12308;SDS011;6217;48.150;17.142;2023-02-16T18:57:41;92.97;;;34.13;;
12308;SDS011;6217;48.150;17.142;2023-02-16T19:01:52;164.55;;;42.78;;
12308;SDS011;6217;48.150;17.142;2023-02-16T19:06:06;99.80;;;35.85;;
12308;SDS011;6217;48.150;17.142;2023-02-16T19:10:13;113.30;;;35.28;;
12308;SDS011;6217;48.150;17.142;2023-02-16T19:14:19;108.10;;;35.88;;
12308;SDS011;6217;48.150;17.142;2023-02-16T19:18:25;156.13;;;39.47;;
12308;SDS011;6217;48.150;17.142;2023-02-16T19:22:33;93.43;;;33.63;;
12308;SDS011;6217;48.150;17.142;2023-02-16T19:26:41;100.07;;;35.30;;
12308;SDS011;6217;48.150;17.142;2023-02-16T19:30:47;78.85;;;30.00;;
12308;SDS011;6217;48.150;17.142;2023-02-16T19:34:53;97.65;;;30.48;;
12308;SDS011;6217;48.150;17.142;2023-02-16T19:38:59;117.68;;;30.02;;
12308;SDS011;6217;48.150;17.142;2023-02-16T19:43:06;93.50;;;30.77;;
12308;SDS011;6217;48.150;17.142;2023-02-16T19:47:12;77.28;;;27.42;;
12308;SDS011;6217;48.150;17.142;2023-02-16T19:51:18;63.97;;;30.52;;
12308;SDS011;6217;48.150;17.142;2023-02-16T19:55:23;54.83;;;26.40;;
12308;SDS011;6217;48.150;17.142;2023-02-16T19:59:30;55.35;;;25.77;;
12308;SDS011;6217;48.150;17.142;2023-02-16T20:03:37;86.25;;;26.10;;
12308;SDS011;6217;48.150;17.142;2023-02-16T20:07:43;62.00;;;22.95;;
12308;SDS011;6217;48.150;17.142;2023-02-16T20:11:49;64.40;;;25.15;;
12308;SDS011;6217;48.150;17.142;2023-02-16T20:15:59;60.28;;;26.48;;
12308;SDS011;6217;48.150;17.142;2023-02-16T20:20:06;84.60;;;26.15;;
12308;SDS011;6217;48.150;17.142;2023-02-16T20:24:12;69.97;;;26.15;;
12308;SDS011;6217;48.150;17.142;2023-02-16T20:28:19;98.95;;;26.33;;
12308;SDS011;6217;48.150;17.142;2023-02-16T20:32:27;83.65;;;26.63;;
12308;SDS011;6217;48.150;17.142;2023-02-16T20:36:34;83.85;;;26.77;;
12308;SDS011;6217;48.150;17.142;2023-02-16T20:40:41;88.88;;;25.85;;
12308;SDS011;6217;48.150;17.142;2023-02-16T20:44:47;91.10;;;24.52;;
12308;SDS011;6217;48.150;17.142;2023-02-16T20:48:53;118.70;;;30.35;;
12308;SDS011;6217;48.150;17.142;2023-02-16T20:53:00;81.55;;;23.85;;
12308;SDS011;6217;48.150;17.142;2023-02-16T20:57:06;60.97;;;27.05;;
12308;SDS011;6217;48.150;17.142;2023-02-16T21:01:13;66.13;;;25.35;;
12308;SDS011;6217;48.150;17.142;2023-02-16T21:05:32;67.70;;;24.33;;
12308;SDS011;6217;48.150;17.142;2023-02-16T21:09:38;71.85;;;27.33;;
12308;SDS011;6217;48.150;17.142;2023-02-16T21:13:44;56.55;;;23.67;;
12308;SDS011;6217;48.150;17.142;2023-02-16T21:17:50;52.38;;;21.42;;
12308;SDS011;6217;48.150;17.142;2023-02-16T21:21:56;58.70;;;22.98;;
12308;SDS011;6217;48.150;17.142;2023-02-16T21:26:05;49.50;;;24.08;;
12308;SDS011;6217;48.150;17.142;2023-02-16T21:30:11;58.15;;;26.02;;
12308;SDS011;6217;48.150;17.142;2023-02-16T21:34:17;54.95;;;23.58;;
12308;SDS011;6217;48.150;17.142;2023-02-16T21:38:29;42.42;;;21.50;;
12308;SDS011;6217;48.150;17.142;2023-02-16T21:42:36;42.40;;;21.42;;
12308;SDS011;6217;48.150;17.142;2023-02-16T21:46:43;46.95;;;22.83;;
12308;SDS011;6217;48.150;17.142;2023-02-16T21:50:53;44.10;;;22.13;;
12308;SDS011;6217;48.150;17.142;2023-02-16T21:54:59;43.25;;;21.35;;
12308;SDS011;6217;48.150;17.142;2023-02-16T21:59:24;40.63;;;20.63;;
12308;SDS011;6217;48.150;17.142;2023-02-16T22:03:30;43.75;;;18.27;;
12308;SDS011;6217;48.150;17.142;2023-02-16T22:07:37;38.92;;;17.45;;
12308;SDS011;6217;48.150;17.142;2023-02-16T22:11:43;36.42;;;17.63;;
12308;SDS011;6217;48.150;17.142;2023-02-16T22:15:50;38.17;;;17.40;;
12308;SDS011;6217;48.150;17.142;2023-02-16T22:19:57;38.42;;;19.02;;
12308;SDS011;6217;48.150;17.142;2023-02-16T22:24:03;47.10;;;19.98;;
12308;SDS011;6217;48.150;17.142;2023-02-16T22:28:10;37.00;;;18.15;;
12308;SDS011;6217;48.150;17.142;2023-02-16T22:32:16;40.10;;;18.95;;
12308;SDS011;6217;48.150;17.142;2023-02-16T22:36:22;41.90;;;19.30;;
12308;SDS011;6217;48.150;17.142;2023-02-16T22:40:29;40.13;;;19.15;;
12308;SDS011;6217;48.150;17.142;2023-02-16T22:44:38;35.47;;;18.88;;
12308;SDS011;6217;48.150;17.142;2023-02-16T22:48:44;35.90;;;17.02;;
12308;SDS011;6217;48.150;17.142;2023-02-16T22:52:51;34.88;;;17.48;;
12308;SDS011;6217;48.150;17.142;2023-02-16T22:56:57;30.45;;;16.33;;
12308;SDS011;6217;48.150;17.142;2023-02-16T23:01:08;30.45;;;16.95;;
12308;SDS011;6217;48.150;17.142;2023-02-16T23:05:17;34.15;;;16.75;;
12308;SDS011;6217;48.150;17.142;2023-02-16T23:09:23;32.15;;;15.27;;
12308;SDS011;6217;48.150;17.142;2023-02-16T23:13:30;28.80;;;16.15;;
12308;SDS011;6217;48.150;17.142;2023-02-16T23:17:37;26.77;;;14.57;;
12308;SDS011;6217;48.150;17.142;2023-02-16T23:21:43;25.58;;;14.27;;
12308;SDS011;6217;48.150;17.142;2023-02-16T23:25:50;31.08;;;16.15;;
12308;SDS011;6217;48.150;17.142;2023-02-16T23:29:56;31.20;;;16.67;;
12308;SDS011;6217;48.150;17.142;2023-02-16T23:34:02;27.25;;;15.40;;
12308;SDS011;6217;48.150;17.142;2023-02-16T23:38:10;29.65;;;17.50;;
12308;SDS011;6217;48.150;17.142;2023-02-16T23:42:18;31.05;;;16.98;;
12308;SDS011;6217;48.150;17.142;2023-02-16T23:46:24;33.25;;;18.58;;
12308;SDS011;6217;48.150;17.142;2023-02-16T23:50:30;34.67;;;16.00;;
12308;SDS011;6217;48.150;17.142;2023-02-16T23:54:36;23.83;;;14.32;;
12308;SDS011;6217;48.150;17.142;2023-02-16T23:58:42;33.75;;;16.23;;
